sensor_id;sensor_type;location;lat;lon;timestamp;P1;durP1;ratioP1;P2;durP2;ratioP2
13816;SDS011;6979;52.116;5.286;2023-12-28T00:00:19;4.13;;;2.90;;
13816;SDS011;6979;52.116;5.286;2023-12-28T00:02:46;3.10;;;2.90;;
13816;SDS011;6979;52.116;5.286;2023-12-28T00:05:18;4.13;;;3.23;;
13816;SDS011;6979;52.116;5.286;2023-12-28T00:07:45;2.93;;;2.73;;
13816;SDS011;6979;52.116;5.286;2023-12-28T00:10:12;3.70;;;3.13;;
13816;SDS011;6979;52.116;5.286;2023-12-28T00:12:39;4.23;;;3.43;;
13816;SDS011;6979;52.116;5.286;2023-12-28T00:15:08;3.87;;;3.50;;
13816;SDS011;6979;52.116;5.286;2023-12-28T00:17:35;3.60;;;3.30;;
13816;SDS011;6979;52.116;5.286;2023-12-28T00:20:02;3.87;;;3.30;;
13816;SDS011;6979;52.116;5.286;2023-12-28T00:22:29;4.87;;;3.43;;
13816;SDS011;6979;52.116;5.286;2023-12-28T00:24:56;3.63;;;3.33;;
13816;SDS011;6979;52.116;5.286;2023-12-28T00:27:25;2.90;;;2.60;;
13816;SDS011;6979;52.116;5.286;2023-12-28T00:29:52;3.67;;;2.90;;
13816;SDS011;6979;52.116;5.286;2023-12-28T00:32:21;4.13;;;3.70;;
13816;SDS011;6979;52.116;5.286;2023-12-28T00:34:50;3.20;;;3.00;;
13816;SDS011;6979;52.116;5.286;2023-12-28T00:37:17;3.23;;;2.93;;
13816;SDS011;6979;52.116;5.286;2023-12-28T00:39:46;3.50;;;2.80;;
13816;SDS011;6979;52.116;5.286;2023-12-28T00:42:15;3.70;;;3.23;;
13816;SDS011;6979;52.116;5.286;2023-12-28T00:44:44;4.30;;;3.07;;
13816;SDS011;6979;52.116;5.286;2023-12-28T00:47:11;3.97;;;3.60;;
13816;SDS011;6979;52.116;5.286;2023-12-28T00:49:39;4.83;;;3.33;;
13816;SDS011;6979;52.116;5.286;2023-12-28T00:52:07;6.10;;;3.27;;
13816;SDS011;6979;52.116;5.286;2023-12-28T00:54:43;4.10;;;3.07;;
13816;SDS011;6979;52.116;5.286;2023-12-28T00:57:09;3.90;;;3.20;;
13816;SDS011;6979;52.116;5.286;2023-12-28T00:59:36;3.80;;;3.50;;
13816;SDS011;6979;52.116;5.286;2023-12-28T01:02:04;4.50;;;3.17;;
13816;SDS011;6979;52.116;5.286;2023-12-28T01:04:31;4.90;;;3.17;;
13816;SDS011;6979;52.116;5.286;2023-12-28T01:06:59;3.60;;;2.97;;
13816;SDS011;6979;52.116;5.286;2023-12-28T01:09:27;6.20;;;3.30;;
13816;SDS011;6979;52.116;5.286;2023-12-28T01:11:55;5.03;;;3.03;;
13816;SDS011;6979;52.116;5.286;2023-12-28T01:14:25;4.33;;;3.50;;
13816;SDS011;6979;52.116;5.286;2023-12-28T01:16:52;4.63;;;2.63;;
13816;SDS011;6979;52.116;5.286;2023-12-28T01:19:19;3.03;;;2.63;;
13816;SDS011;6979;52.116;5.286;2023-12-28T01:21:48;4.23;;;2.90;;
13816;SDS011;6979;52.116;5.286;2023-12-28T01:24:17;5.30;;;2.60;;
13816;SDS011;6979;52.116;5.286;2023-12-28T01:26:44;3.10;;;2.90;;
13816;SDS011;6979;52.116;5.286;2023-12-28T01:29:10;3.80;;;3.27;;
13816;SDS011;6979;52.116;5.286;2023-12-28T01:34:26;3.93;;;2.77;;
13816;SDS011;6979;52.116;5.286;2023-12-28T01:36:55;3.37;;;2.80;;
13816;SDS011;6979;52.116;5.286;2023-12-28T01:39:34;3.13;;;2.93;;
13816;SDS011;6979;52.116;5.286;2023-12-28T01:42:14;4.03;;;2.80;;
13816;SDS011;6979;52.116;5.286;2023-12-28T01:44:41;3.87;;;2.70;;
13816;SDS011;6979;52.116;5.286;2023-12-28T01:47:08;2.97;;;2.70;;
13816;SDS011;6979;52.116;5.286;2023-12-28T01:49:35;4.20;;;3.37;;
13816;SDS011;6979;52.116;5.286;2023-12-28T01:52:03;4.67;;;2.43;;
13816;SDS011;6979;52.116;5.286;2023-12-28T01:54:31;4.17;;;3.03;;
13816;SDS011;6979;52.116;5.286;2023-12-28T01:57:00;3.90;;;2.87;;
13816;SDS011;6979;52.116;5.286;2023-12-28T01:59:32;3.30;;;3.00;;
13816;SDS011;6979;52.116;5.286;2023-12-28T02:02:03;5.10;;;3.20;;
13816;SDS011;6979;52.116;5.286;2023-12-28T02:04:29;5.33;;;2.97;;
13816;SDS011;6979;52.116;5.286;2023-12-28T02:06:57;3.60;;;3.10;;
13816;SDS011;6979;52.116;5.286;2023-12-28T02:09:26;6.90;;;3.40;;
13816;SDS011;6979;52.116;5.286;2023-12-28T02:12:01;4.43;;;3.50;;
13816;SDS011;6979;52.116;5.286;2023-12-28T02:14:31;3.97;;;3.20;;
13816;SDS011;6979;52.116;5.286;2023-12-28T02:17:00;4.93;;;3.27;;
13816;SDS011;6979;52.116;5.286;2023-12-28T02:19:36;4.03;;;2.60;;
13816;SDS011;6979;52.116;5.286;2023-12-28T02:22:10;4.17;;;2.90;;
13816;SDS011;6979;52.116;5.286;2023-12-28T02:24:54;3.70;;;3.10;;
13816;SDS011;6979;52.116;5.286;2023-12-28T02:27:31;4.57;;;3.13;;
13816;SDS011;6979;52.116;5.286;2023-12-28T02:29:59;3.30;;;2.90;;
13816;SDS011;6979;52.116;5.286;2023-12-28T02:32:30;3.70;;;2.63;;
13816;SDS011;6979;52.116;5.286;2023-12-28T02:35:06;3.70;;;2.97;;
13816;SDS011;6979;52.116;5.286;2023-12-28T02:37:43;6.33;;;2.83;;
13816;SDS011;6979;52.116;5.286;2023-12-28T02:40:14;3.37;;;2.73;;
13816;SDS011;6979;52.116;5.286;2023-12-28T02:42:42;3.83;;;2.53;;
13816;SDS011;6979;52.116;5.286;2023-12-28T02:45:09;3.40;;;2.30;;
13816;SDS011;6979;52.116;5.286;2023-12-28T02:47:36;5.60;;;2.80;;
13816;SDS011;6979;52.116;5.286;2023-12-28T02:50:15;5.33;;;2.80;;
13816;SDS011;6979;52.116;5.286;2023-12-28T02:52:43;4.63;;;2.97;;
13816;SDS011;6979;52.116;5.286;2023-12-28T02:55:09;3.00;;;2.57;;
13816;SDS011;6979;52.116;5.286;2023-12-28T02:57:38;5.03;;;2.93;;
13816;SDS011;6979;52.116;5.286;2023-12-28T03:00:06;3.60;;;2.30;;
13816;SDS011;6979;52.116;5.286;2023-12-28T03:02:39;3.23;;;2.50;;
13816;SDS011;6979;52.116;5.286;2023-12-28T03:05:06;3.43;;;2.77;;
13816;SDS011;6979;52.116;5.286;2023-12-28T03:07:37;4.97;;;2.60;;
13816;SDS011;6979;52.116;5.286;2023-12-28T03:10:06;3.73;;;2.03;;
13816;SDS011;6979;52.116;5.286;2023-12-28T03:12:33;3.73;;;2.57;;
13816;SDS011;6979;52.116;5.286;2023-12-28T03:15:03;4.33;;;2.80;;
13816;SDS011;6979;52.116;5.286;2023-12-28T03:17:33;4.87;;;3.17;;
13816;SDS011;6979;52.116;5.286;2023-12-28T03:20:26;3.17;;;2.43;;
13816;SDS011;6979;52.116;5.286;2023-12-28T03:22:53;4.87;;;2.63;;
13816;SDS011;6979;52.116;5.286;2023-12-28T03:25:29;4.53;;;2.50;;
13816;SDS011;6979;52.116;5.286;2023-12-28T03:28:13;4.20;;;2.60;;
13816;SDS011;6979;52.116;5.286;2023-12-28T03:30:42;3.97;;;2.03;;
13816;SDS011;6979;52.116;5.286;2023-12-28T03:33:26;3.53;;;2.37;;
13816;SDS011;6979;52.116;5.286;2023-12-28T03:35:53;2.93;;;2.57;;
13816;SDS011;6979;52.116;5.286;2023-12-28T03:38:20;5.17;;;2.57;;
13816;SDS011;6979;52.116;5.286;2023-12-28T03:40:47;5.17;;;2.73;;
13816;SDS011;6979;52.116;5.286;2023-12-28T03:43:15;7.63;;;2.93;;
13816;SDS011;6979;52.116;5.286;2023-12-28T03:45:43;5.23;;;2.27;;
13816;SDS011;6979;52.116;5.286;2023-12-28T03:48:10;4.23;;;2.73;;
13816;SDS011;6979;52.116;5.286;2023-12-28T03:50:37;4.93;;;2.10;;
13816;SDS011;6979;52.116;5.286;2023-12-28T03:53:04;7.77;;;3.33;;
13816;SDS011;6979;52.116;5.286;2023-12-28T03:55:31;2.50;;;2.30;;
13816;SDS011;6979;52.116;5.286;2023-12-28T03:57:58;5.37;;;2.50;;
13816;SDS011;6979;52.116;5.286;2023-12-28T04:00:27;5.50;;;2.57;;
13816;SDS011;6979;52.116;5.286;2023-12-28T04:02:55;4.93;;;2.47;;
13816;SDS011;6979;52.116;5.286;2023-12-28T04:05:24;5.10;;;2.63;;
13816;SDS011;6979;52.116;5.286;2023-12-28T04:07:58;5.87;;;2.43;;
13816;SDS011;6979;52.116;5.286;2023-12-28T04:10:28;4.47;;;2.30;;
13816;SDS011;6979;52.116;5.286;2023-12-28T04:12:56;4.90;;;2.90;;
13816;SDS011;6979;52.116;5.286;2023-12-28T04:15:24;4.87;;;2.50;;
13816;SDS011;6979;52.116;5.286;2023-12-28T04:17:51;4.77;;;2.50;;
13816;SDS011;6979;52.116;5.286;2023-12-28T04:20:20;8.47;;;2.90;;
13816;SDS011;6979;52.116;5.286;2023-12-28T04:22:53;8.90;;;2.97;;
13816;SDS011;6979;52.116;5.286;2023-12-28T04:25:20;6.63;;;3.03;;
13816;SDS011;6979;52.116;5.286;2023-12-28T04:27:47;5.67;;;2.83;;
13816;SDS011;6979;52.116;5.286;2023-12-28T04:30:21;2.73;;;2.30;;
13816;SDS011;6979;52.116;5.286;2023-12-28T04:33:00;3.27;;;2.27;;
13816;SDS011;6979;52.116;5.286;2023-12-28T04:35:35;5.63;;;2.67;;
13816;SDS011;6979;52.116;5.286;2023-12-28T04:38:02;4.70;;;2.60;;
13816;SDS011;6979;52.116;5.286;2023-12-28T04:40:29;4.50;;;2.90;;
13816;SDS011;6979;52.116;5.286;2023-12-28T04:42:57;5.40;;;2.30;;
13816;SDS011;6979;52.116;5.286;2023-12-28T04:45:23;7.70;;;3.57;;
13816;SDS011;6979;52.116;5.286;2023-12-28T04:47:50;4.47;;;2.40;;
13816;SDS011;6979;52.116;5.286;2023-12-28T04:50:17;9.03;;;3.03;;
13816;SDS011;6979;52.116;5.286;2023-12-28T04:52:46;6.77;;;2.53;;
13816;SDS011;6979;52.116;5.286;2023-12-28T04:55:13;9.07;;;3.60;;
13816;SDS011;6979;52.116;5.286;2023-12-28T04:57:42;6.37;;;2.47;;
13816;SDS011;6979;52.116;5.286;2023-12-28T05:00:16;5.80;;;2.70;;
13816;SDS011;6979;52.116;5.286;2023-12-28T05:02:54;5.97;;;2.53;;
13816;SDS011;6979;52.116;5.286;2023-12-28T05:05:24;9.63;;;3.03;;
13816;SDS011;6979;52.116;5.286;2023-12-28T05:07:52;7.10;;;3.00;;
13816;SDS011;6979;52.116;5.286;2023-12-28T05:10:19;8.87;;;2.80;;
13816;SDS011;6979;52.116;5.286;2023-12-28T05:12:46;7.23;;;2.93;;
13816;SDS011;6979;52.116;5.286;2023-12-28T05:15:14;11.63;;;3.20;;
13816;SDS011;6979;52.116;5.286;2023-12-28T05:17:43;6.67;;;2.70;;
13816;SDS011;6979;52.116;5.286;2023-12-28T05:20:10;4.57;;;2.80;;
13816;SDS011;6979;52.116;5.286;2023-12-28T05:22:37;5.50;;;3.27;;
13816;SDS011;6979;52.116;5.286;2023-12-28T05:25:06;7.30;;;2.67;;
13816;SDS011;6979;52.116;5.286;2023-12-28T05:27:33;3.63;;;2.13;;
13816;SDS011;6979;52.116;5.286;2023-12-28T05:30:00;9.87;;;3.17;;
13816;SDS011;6979;52.116;5.286;2023-12-28T05:32:27;9.13;;;3.13;;
13816;SDS011;6979;52.116;5.286;2023-12-28T05:35:02;8.40;;;2.60;;
13816;SDS011;6979;52.116;5.286;2023-12-28T05:37:29;10.67;;;3.03;;
13816;SDS011;6979;52.116;5.286;2023-12-28T05:39:56;9.17;;;3.30;;
13816;SDS011;6979;52.116;5.286;2023-12-28T05:42:30;6.83;;;3.37;;
13816;SDS011;6979;52.116;5.286;2023-12-28T05:45:24;8.93;;;2.77;;
13816;SDS011;6979;52.116;5.286;2023-12-28T05:47:51;7.43;;;2.63;;
13816;SDS011;6979;52.116;5.286;2023-12-28T05:50:18;8.53;;;3.37;;
13816;SDS011;6979;52.116;5.286;2023-12-28T05:52:45;7.87;;;3.03;;
13816;SDS011;6979;52.116;5.286;2023-12-28T05:55:12;6.67;;;2.67;;
13816;SDS011;6979;52.116;5.286;2023-12-28T05:57:45;8.20;;;3.50;;
13816;SDS011;6979;52.116;5.286;2023-12-28T06:00:14;5.67;;;2.43;;
13816;SDS011;6979;52.116;5.286;2023-12-28T06:02:42;7.00;;;3.13;;
13816;SDS011;6979;52.116;5.286;2023-12-28T06:05:09;8.37;;;3.70;;
13816;SDS011;6979;52.116;5.286;2023-12-28T06:07:36;6.77;;;2.93;;
13816;SDS011;6979;52.116;5.286;2023-12-28T06:10:21;13.30;;;3.93;;
13816;SDS011;6979;52.116;5.286;2023-12-28T06:12:50;5.10;;;2.63;;
13816;SDS011;6979;52.116;5.286;2023-12-28T06:15:17;10.37;;;3.63;;
13816;SDS011;6979;52.116;5.286;2023-12-28T06:17:47;9.17;;;3.73;;
13816;SDS011;6979;52.116;5.286;2023-12-28T06:20:14;8.37;;;3.47;;
13816;SDS011;6979;52.116;5.286;2023-12-28T06:22:41;6.83;;;3.27;;
13816;SDS011;6979;52.116;5.286;2023-12-28T06:25:08;8.83;;;3.10;;
13816;SDS011;6979;52.116;5.286;2023-12-28T06:27:37;12.57;;;3.40;;
13816;SDS011;6979;52.116;5.286;2023-12-28T06:30:06;12.53;;;3.43;;
13816;SDS011;6979;52.116;5.286;2023-12-28T06:32:33;8.73;;;3.20;;
13816;SDS011;6979;52.116;5.286;2023-12-28T06:35:00;9.70;;;3.40;;
13816;SDS011;6979;52.116;5.286;2023-12-28T06:37:27;10.80;;;3.70;;
13816;SDS011;6979;52.116;5.286;2023-12-28T06:40:01;10.47;;;3.10;;
13816;SDS011;6979;52.116;5.286;2023-12-28T06:42:35;11.17;;;3.37;;
13816;SDS011;6979;52.116;5.286;2023-12-28T06:45:03;11.43;;;3.00;;
13816;SDS011;6979;52.116;5.286;2023-12-28T06:47:31;7.30;;;2.70;;
13816;SDS011;6979;52.116;5.286;2023-12-28T06:50:00;10.43;;;3.10;;
13816;SDS011;6979;52.116;5.286;2023-12-28T06:52:27;12.30;;;3.47;;
13816;SDS011;6979;52.116;5.286;2023-12-28T06:54:56;9.90;;;3.33;;
13816;SDS011;6979;52.116;5.286;2023-12-28T06:57:23;10.93;;;3.47;;
13816;SDS011;6979;52.116;5.286;2023-12-28T06:59:50;7.70;;;3.60;;
13816;SDS011;6979;52.116;5.286;2023-12-28T07:02:19;12.13;;;3.13;;
13816;SDS011;6979;52.116;5.286;2023-12-28T07:04:51;15.07;;;2.93;;
13816;SDS011;6979;52.116;5.286;2023-12-28T07:07:18;9.10;;;3.13;;
13816;SDS011;6979;52.116;5.286;2023-12-28T07:09:45;12.57;;;4.13;;
13816;SDS011;6979;52.116;5.286;2023-12-28T07:12:12;7.93;;;3.70;;
13816;SDS011;6979;52.116;5.286;2023-12-28T07:14:39;11.63;;;3.73;;
13816;SDS011;6979;52.116;5.286;2023-12-28T07:17:06;11.20;;;4.33;;
13816;SDS011;6979;52.116;5.286;2023-12-28T07:19:32;10.97;;;3.80;;
13816;SDS011;6979;52.116;5.286;2023-12-28T07:22:05;11.73;;;3.50;;
13816;SDS011;6979;52.116;5.286;2023-12-28T07:24:32;6.67;;;2.83;;
13816;SDS011;6979;52.116;5.286;2023-12-28T07:26:59;10.43;;;4.20;;
13816;SDS011;6979;52.116;5.286;2023-12-28T07:29:26;10.17;;;3.47;;
13816;SDS011;6979;52.116;5.286;2023-12-28T07:31:55;11.73;;;3.23;;
13816;SDS011;6979;52.116;5.286;2023-12-28T07:34:25;14.10;;;3.90;;
13816;SDS011;6979;52.116;5.286;2023-12-28T07:36:55;10.57;;;3.70;;
13816;SDS011;6979;52.116;5.286;2023-12-28T07:39:26;8.33;;;3.27;;
13816;SDS011;6979;52.116;5.286;2023-12-28T07:42:01;15.37;;;4.17;;
13816;SDS011;6979;52.116;5.286;2023-12-28T07:44:28;10.90;;;3.63;;
13816;SDS011;6979;52.116;5.286;2023-12-28T07:46:55;8.77;;;3.80;;
13816;SDS011;6979;52.116;5.286;2023-12-28T07:49:25;9.03;;;3.37;;
13816;SDS011;6979;52.116;5.286;2023-12-28T07:51:52;11.83;;;3.17;;
13816;SDS011;6979;52.116;5.286;2023-12-28T07:54:19;10.67;;;3.97;;
13816;SDS011;6979;52.116;5.286;2023-12-28T07:56:47;8.53;;;3.43;;
13816;SDS011;6979;52.116;5.286;2023-12-28T07:59:14;9.73;;;3.50;;
13816;SDS011;6979;52.116;5.286;2023-12-28T08:01:42;10.47;;;3.70;;
13816;SDS011;6979;52.116;5.286;2023-12-28T08:04:08;10.27;;;3.60;;
13816;SDS011;6979;52.116;5.286;2023-12-28T08:06:35;9.13;;;3.13;;
13816;SDS011;6979;52.116;5.286;2023-12-28T08:09:02;11.37;;;3.77;;
13816;SDS011;6979;52.116;5.286;2023-12-28T08:11:29;8.23;;;3.10;;
13816;SDS011;6979;52.116;5.286;2023-12-28T08:14:00;10.43;;;3.93;;
13816;SDS011;6979;52.116;5.286;2023-12-28T08:16:27;7.33;;;3.67;;
13816;SDS011;6979;52.116;5.286;2023-12-28T08:18:54;9.90;;;3.40;;
13816;SDS011;6979;52.116;5.286;2023-12-28T08:21:20;8.87;;;4.17;;
13816;SDS011;6979;52.116;5.286;2023-12-28T08:23:47;13.63;;;3.37;;
13816;SDS011;6979;52.116;5.286;2023-12-28T08:26:14;9.33;;;3.10;;
13816;SDS011;6979;52.116;5.286;2023-12-28T08:28:41;9.93;;;3.60;;
13816;SDS011;6979;52.116;5.286;2023-12-28T08:31:09;9.10;;;3.00;;
13816;SDS011;6979;52.116;5.286;2023-12-28T08:33:37;8.37;;;3.40;;
13816;SDS011;6979;52.116;5.286;2023-12-28T08:36:08;10.33;;;3.70;;
13816;SDS011;6979;52.116;5.286;2023-12-28T08:38:36;16.13;;;3.97;;
13816;SDS011;6979;52.116;5.286;2023-12-28T08:41:03;10.67;;;3.03;;
13816;SDS011;6979;52.116;5.286;2023-12-28T08:43:34;10.40;;;3.47;;
13816;SDS011;6979;52.116;5.286;2023-12-28T08:46:01;8.53;;;3.63;;
13816;SDS011;6979;52.116;5.286;2023-12-28T08:48:29;11.80;;;3.87;;
13816;SDS011;6979;52.116;5.286;2023-12-28T08:50:57;8.57;;;3.10;;
13816;SDS011;6979;52.116;5.286;2023-12-28T08:53:24;13.57;;;3.87;;
13816;SDS011;6979;52.116;5.286;2023-12-28T08:55:51;9.27;;;3.60;;
13816;SDS011;6979;52.116;5.286;2023-12-28T08:58:18;6.90;;;2.97;;
13816;SDS011;6979;52.116;5.286;2023-12-28T09:00:45;11.57;;;3.63;;
13816;SDS011;6979;52.116;5.286;2023-12-28T09:03:13;12.07;;;3.70;;
13816;SDS011;6979;52.116;5.286;2023-12-28T09:05:42;11.43;;;4.03;;
13816;SDS011;6979;52.116;5.286;2023-12-28T09:08:09;11.17;;;3.97;;
13816;SDS011;6979;52.116;5.286;2023-12-28T09:10:36;8.40;;;2.93;;
13816;SDS011;6979;52.116;5.286;2023-12-28T09:13:04;11.47;;;3.60;;
13816;SDS011;6979;52.116;5.286;2023-12-28T09:15:31;10.17;;;3.40;;
13816;SDS011;6979;52.116;5.286;2023-12-28T09:17:58;12.50;;;4.10;;
13816;SDS011;6979;52.116;5.286;2023-12-28T09:20:27;10.83;;;3.27;;
13816;SDS011;6979;52.116;5.286;2023-12-28T09:22:55;9.33;;;3.67;;
13816;SDS011;6979;52.116;5.286;2023-12-28T09:25:25;12.40;;;4.30;;
13816;SDS011;6979;52.116;5.286;2023-12-28T09:27:52;11.77;;;3.93;;
13816;SDS011;6979;52.116;5.286;2023-12-28T09:30:21;13.90;;;4.50;;
13816;SDS011;6979;52.116;5.286;2023-12-28T09:32:48;13.40;;;4.27;;
13816;SDS011;6979;52.116;5.286;2023-12-28T09:35:15;11.80;;;4.27;;
13816;SDS011;6979;52.116;5.286;2023-12-28T09:37:42;11.60;;;3.40;;
13816;SDS011;6979;52.116;5.286;2023-12-28T09:40:10;12.77;;;4.20;;
13816;SDS011;6979;52.116;5.286;2023-12-28T09:42:40;12.17;;;4.47;;
13816;SDS011;6979;52.116;5.286;2023-12-28T09:45:14;12.20;;;3.67;;
13816;SDS011;6979;52.116;5.286;2023-12-28T09:47:41;11.50;;;3.57;;
13816;SDS011;6979;52.116;5.286;2023-12-28T09:50:09;7.67;;;3.60;;
13816;SDS011;6979;52.116;5.286;2023-12-28T09:52:39;7.20;;;3.57;;
13816;SDS011;6979;52.116;5.286;2023-12-28T09:55:06;12.63;;;3.43;;
13816;SDS011;6979;52.116;5.286;2023-12-28T09:57:34;13.37;;;3.50;;
13816;SDS011;6979;52.116;5.286;2023-12-28T10:00:04;14.17;;;4.00;;
13816;SDS011;6979;52.116;5.286;2023-12-28T10:02:37;11.67;;;3.70;;
13816;SDS011;6979;52.116;5.286;2023-12-28T10:05:06;8.83;;;4.17;;
13816;SDS011;6979;52.116;5.286;2023-12-28T10:07:35;10.50;;;3.80;;
13816;SDS011;6979;52.116;5.286;2023-12-28T10:10:07;7.80;;;3.20;;
13816;SDS011;6979;52.116;5.286;2023-12-28T10:12:36;14.37;;;3.90;;
13816;SDS011;6979;52.116;5.286;2023-12-28T10:15:04;12.17;;;4.20;;
13816;SDS011;6979;52.116;5.286;2023-12-28T10:17:32;13.23;;;3.30;;
13816;SDS011;6979;52.116;5.286;2023-12-28T10:20:04;12.30;;;3.90;;
13816;SDS011;6979;52.116;5.286;2023-12-28T10:22:34;9.53;;;4.07;;
13816;SDS011;6979;52.116;5.286;2023-12-28T10:25:02;12.03;;;4.23;;
13816;SDS011;6979;52.116;5.286;2023-12-28T10:27:30;10.00;;;3.67;;
13816;SDS011;6979;52.116;5.286;2023-12-28T10:29:58;13.73;;;4.67;;
13816;SDS011;6979;52.116;5.286;2023-12-28T10:32:25;8.70;;;2.80;;
13816;SDS011;6979;52.116;5.286;2023-12-28T10:34:52;8.83;;;3.60;;
13816;SDS011;6979;52.116;5.286;2023-12-28T10:37:19;13.23;;;4.07;;
13816;SDS011;6979;52.116;5.286;2023-12-28T10:39:47;13.57;;;3.67;;
13816;SDS011;6979;52.116;5.286;2023-12-28T10:42:16;11.23;;;4.23;;
13816;SDS011;6979;52.116;5.286;2023-12-28T10:45:05;12.20;;;4.33;;
13816;SDS011;6979;52.116;5.286;2023-12-28T10:47:37;12.63;;;4.30;;
13816;SDS011;6979;52.116;5.286;2023-12-28T10:50:11;9.80;;;3.20;;
13816;SDS011;6979;52.116;5.286;2023-12-28T10:52:39;8.33;;;3.97;;
13816;SDS011;6979;52.116;5.286;2023-12-28T10:55:21;11.93;;;3.90;;
13816;SDS011;6979;52.116;5.286;2023-12-28T10:57:58;9.23;;;3.53;;
13816;SDS011;6979;52.116;5.286;2023-12-28T11:03:21;9.00;;;3.43;;
13816;SDS011;6979;52.116;5.286;2023-12-28T11:05:56;10.43;;;4.10;;
13816;SDS011;6979;52.116;5.286;2023-12-28T11:08:24;6.17;;;3.00;;
13816;SDS011;6979;52.116;5.286;2023-12-28T11:10:52;11.33;;;4.03;;
13816;SDS011;6979;52.116;5.286;2023-12-28T11:13:20;14.37;;;4.30;;
13816;SDS011;6979;52.116;5.286;2023-12-28T11:15:52;13.13;;;3.90;;
13816;SDS011;6979;52.116;5.286;2023-12-28T11:18:22;10.50;;;3.97;;
13816;SDS011;6979;52.116;5.286;2023-12-28T11:20:49;10.83;;;3.67;;
13816;SDS011;6979;52.116;5.286;2023-12-28T11:23:18;8.30;;;3.50;;
13816;SDS011;6979;52.116;5.286;2023-12-28T11:25:44;14.37;;;3.83;;
13816;SDS011;6979;52.116;5.286;2023-12-28T11:28:13;12.90;;;4.10;;
13816;SDS011;6979;52.116;5.286;2023-12-28T11:30:41;12.63;;;4.03;;
13816;SDS011;6979;52.116;5.286;2023-12-28T11:33:20;14.17;;;3.80;;
13816;SDS011;6979;52.116;5.286;2023-12-28T11:35:47;14.80;;;4.70;;
13816;SDS011;6979;52.116;5.286;2023-12-28T11:38:14;14.47;;;3.43;;
13816;SDS011;6979;52.116;5.286;2023-12-28T11:40:46;12.70;;;4.27;;
13816;SDS011;6979;52.116;5.286;2023-12-28T11:43:14;11.80;;;3.60;;
13816;SDS011;6979;52.116;5.286;2023-12-28T11:45:47;17.07;;;4.50;;
13816;SDS011;6979;52.116;5.286;2023-12-28T11:48:28;13.33;;;3.43;;
13816;SDS011;6979;52.116;5.286;2023-12-28T11:50:58;10.90;;;3.83;;
13816;SDS011;6979;52.116;5.286;2023-12-28T11:53:29;13.53;;;3.63;;
13816;SDS011;6979;52.116;5.286;2023-12-28T11:55:59;7.80;;;4.07;;
13816;SDS011;6979;52.116;5.286;2023-12-28T11:58:28;12.33;;;3.37;;
13816;SDS011;6979;52.116;5.286;2023-12-28T12:00:55;11.47;;;3.83;;
13816;SDS011;6979;52.116;5.286;2023-12-28T12:03:25;7.53;;;3.30;;
13816;SDS011;6979;52.116;5.286;2023-12-28T12:05:56;10.17;;;3.60;;
13816;SDS011;6979;52.116;5.286;2023-12-28T12:08:23;14.33;;;3.87;;
13816;SDS011;6979;52.116;5.286;2023-12-28T12:10:59;10.13;;;4.07;;
13816;SDS011;6979;52.116;5.286;2023-12-28T12:13:29;7.90;;;3.33;;
13816;SDS011;6979;52.116;5.286;2023-12-28T12:15:59;9.40;;;3.60;;
13816;SDS011;6979;52.116;5.286;2023-12-28T12:18:32;12.33;;;4.53;;
13816;SDS011;6979;52.116;5.286;2023-12-28T12:20:59;10.13;;;4.43;;
13816;SDS011;6979;52.116;5.286;2023-12-28T12:23:27;15.00;;;4.00;;
13816;SDS011;6979;52.116;5.286;2023-12-28T12:25:53;10.43;;;4.27;;
13816;SDS011;6979;52.116;5.286;2023-12-28T12:28:20;12.67;;;3.63;;
13816;SDS011;6979;52.116;5.286;2023-12-28T12:30:51;9.93;;;4.07;;
13816;SDS011;6979;52.116;5.286;2023-12-28T12:33:19;12.43;;;3.50;;
13816;SDS011;6979;52.116;5.286;2023-12-28T12:35:48;8.57;;;3.03;;
13816;SDS011;6979;52.116;5.286;2023-12-28T12:38:15;8.43;;;3.20;;
13816;SDS011;6979;52.116;5.286;2023-12-28T12:40:43;14.57;;;5.07;;
13816;SDS011;6979;52.116;5.286;2023-12-28T12:43:12;10.97;;;4.03;;
13816;SDS011;6979;52.116;5.286;2023-12-28T12:45:40;9.87;;;3.47;;
13816;SDS011;6979;52.116;5.286;2023-12-28T12:48:07;15.80;;;4.30;;
13816;SDS011;6979;52.116;5.286;2023-12-28T12:50:36;10.17;;;2.93;;
13816;SDS011;6979;52.116;5.286;2023-12-28T12:53:05;16.27;;;4.67;;
13816;SDS011;6979;52.116;5.286;2023-12-28T12:55:32;13.67;;;4.57;;
13816;SDS011;6979;52.116;5.286;2023-12-28T12:57:59;12.27;;;3.77;;
13816;SDS011;6979;52.116;5.286;2023-12-28T13:00:27;12.87;;;3.70;;
13816;SDS011;6979;52.116;5.286;2023-12-28T13:02:58;11.03;;;3.90;;
13816;SDS011;6979;52.116;5.286;2023-12-28T13:05:25;11.77;;;4.27;;
13816;SDS011;6979;52.116;5.286;2023-12-28T13:07:52;11.33;;;4.00;;
13816;SDS011;6979;52.116;5.286;2023-12-28T13:10:21;10.40;;;3.67;;
13816;SDS011;6979;52.116;5.286;2023-12-28T13:12:50;14.27;;;4.17;;
13816;SDS011;6979;52.116;5.286;2023-12-28T13:15:16;13.50;;;4.47;;
13816;SDS011;6979;52.116;5.286;2023-12-28T13:17:44;13.60;;;3.70;;
13816;SDS011;6979;52.116;5.286;2023-12-28T13:20:11;13.03;;;3.60;;
13816;SDS011;6979;52.116;5.286;2023-12-28T13:22:38;15.63;;;3.90;;
13816;SDS011;6979;52.116;5.286;2023-12-28T13:25:05;12.30;;;3.73;;
13816;SDS011;6979;52.116;5.286;2023-12-28T13:27:33;9.60;;;4.27;;
13816;SDS011;6979;52.116;5.286;2023-12-28T13:30:07;10.20;;;3.90;;
13816;SDS011;6979;52.116;5.286;2023-12-28T13:32:36;10.83;;;3.47;;
13816;SDS011;6979;52.116;5.286;2023-12-28T13:35:03;14.23;;;3.87;;
13816;SDS011;6979;52.116;5.286;2023-12-28T13:37:33;8.43;;;3.33;;
13816;SDS011;6979;52.116;5.286;2023-12-28T13:40:00;16.30;;;4.50;;
13816;SDS011;6979;52.116;5.286;2023-12-28T13:42:27;15.70;;;5.13;;
13816;SDS011;6979;52.116;5.286;2023-12-28T13:44:57;11.57;;;5.30;;
13816;SDS011;6979;52.116;5.286;2023-12-28T13:47:30;9.07;;;3.50;;
13816;SDS011;6979;52.116;5.286;2023-12-28T13:50:03;12.00;;;3.47;;
13816;SDS011;6979;52.116;5.286;2023-12-28T13:52:31;8.33;;;3.23;;
13816;SDS011;6979;52.116;5.286;2023-12-28T13:54:58;11.50;;;4.27;;
13816;SDS011;6979;52.116;5.286;2023-12-28T13:57:25;12.40;;;3.73;;
13816;SDS011;6979;52.116;5.286;2023-12-28T13:59:52;12.07;;;4.03;;
13816;SDS011;6979;52.116;5.286;2023-12-28T14:02:22;11.53;;;4.00;;
13816;SDS011;6979;52.116;5.286;2023-12-28T14:04:52;16.40;;;4.43;;
13816;SDS011;6979;52.116;5.286;2023-12-28T14:07:19;13.30;;;3.63;;
13816;SDS011;6979;52.116;5.286;2023-12-28T14:09:46;10.03;;;3.60;;
13816;SDS011;6979;52.116;5.286;2023-12-28T14:12:12;19.30;;;11.93;;
13816;SDS011;6979;52.116;5.286;2023-12-28T14:14:39;9.57;;;4.53;;
13816;SDS011;6979;52.116;5.286;2023-12-28T14:17:06;9.37;;;3.57;;
13816;SDS011;6979;52.116;5.286;2023-12-28T14:19:35;10.83;;;3.83;;
13816;SDS011;6979;52.116;5.286;2023-12-28T14:22:02;10.53;;;3.60;;
13816;SDS011;6979;52.116;5.286;2023-12-28T14:24:30;11.70;;;4.00;;
13816;SDS011;6979;52.116;5.286;2023-12-28T14:27:00;11.87;;;3.83;;
13816;SDS011;6979;52.116;5.286;2023-12-28T14:29:27;12.00;;;3.63;;
13816;SDS011;6979;52.116;5.286;2023-12-28T14:31:55;11.20;;;3.90;;
13816;SDS011;6979;52.116;5.286;2023-12-28T14:34:24;13.47;;;4.47;;
13816;SDS011;6979;52.116;5.286;2023-12-28T14:36:53;12.80;;;3.80;;
13816;SDS011;6979;52.116;5.286;2023-12-28T14:39:20;9.73;;;3.93;;
13816;SDS011;6979;52.116;5.286;2023-12-28T14:41:47;11.30;;;4.13;;
13816;SDS011;6979;52.116;5.286;2023-12-28T14:44:14;16.50;;;4.20;;
13816;SDS011;6979;52.116;5.286;2023-12-28T14:46:40;14.67;;;4.07;;
13816;SDS011;6979;52.116;5.286;2023-12-28T14:49:07;16.40;;;4.57;;
13816;SDS011;6979;52.116;5.286;2023-12-28T14:51:34;12.13;;;4.87;;
13816;SDS011;6979;52.116;5.286;2023-12-28T14:54:02;15.70;;;3.80;;
13816;SDS011;6979;52.116;5.286;2023-12-28T14:56:30;8.80;;;3.50;;
13816;SDS011;6979;52.116;5.286;2023-12-28T14:58:57;13.70;;;3.80;;
13816;SDS011;6979;52.116;5.286;2023-12-28T15:01:30;11.47;;;3.87;;
13816;SDS011;6979;52.116;5.286;2023-12-28T15:03:56;12.43;;;3.60;;
13816;SDS011;6979;52.116;5.286;2023-12-28T15:06:24;13.63;;;4.50;;
13816;SDS011;6979;52.116;5.286;2023-12-28T15:08:51;10.00;;;4.37;;
13816;SDS011;6979;52.116;5.286;2023-12-28T15:11:20;10.90;;;4.07;;